Terminal Aerodrome Forecast
Issued by NWS Corpus Christi, TX

Home | Current Version | Previous Version | Text Only | Print | Product List | Glossary On
Versions: 1 2 3 4 5 6 7 8 9 10 11 12 13 14
000
FTUS44 KCRP 312337
TAFVCT
TAF
KVCT 312337Z 0100/0124 11008KT P6SM BKN250
     FM011300 VRB03KT P6SM VCSH BKN030
     FM011600 12008KT P6SM VCTS BKN040CB OVC120
     FM011800 13012KT 6SM TSRA BR BKN040CB OVC100=

USA.gov is the U.S. government's official web portal to all federal, state and local government web resources and services.